Amiret, Minnesota
Current Conditions -  °F | °C
As of 1:53 AM on Saturday 25 Oct 2014 (Local Time) from KTKC Reporting Station
Clear Clear  
Wind Chill: 60°   Ceiling: Unl
Heat Index: 60°   Visibility: 10mi
Dew Point: 40°   Wind: 9mph
Humidity: 47%   Direction: 330°NNW
Pressure: 30.02"   Gusts: NA
Location:  44.2253°N, 95.6512°W
Report Text: KTKC 250653Z AUTO 33008KT 10SM CLR 16/04 A3002 RMK AO2 T01550043
Loading
Personal Weather Stations






























Interactive Weather Map New forecast layout! Learn more

10-Day Weather Forecast

Advertisements
Track Severe Weather on mobile